createdAt,value
2019-02-04T00:02:39.691Z,162.87
2019-02-04T00:05:21.021Z,166.40
2019-02-04T00:08:01.767Z,150.93
2019-02-04T00:10:43.254Z,164.93
2019-02-04T00:13:24.766Z,168.70
2019-02-04T00:16:05.887Z,171.80
2019-02-04T00:18:47.374Z,166.50
2019-02-04T00:21:28.712Z,187.93
2019-02-04T00:24:08.380Z,167.83
2019-02-04T00:26:51.671Z,156.67
2019-02-04T00:29:31.883Z,163.97
2019-02-04T00:32:13.226Z,160.23
2019-02-04T00:34:53.921Z,170.70
2019-02-04T00:37:34.943Z,163.87
2019-02-04T00:40:16.545Z,177.27
2019-02-04T00:42:57.522Z,153.43
2019-02-04T00:45:37.060Z,156.13
2019-02-04T00:48:18.475Z,149.43
2019-02-04T00:50:59.656Z,178.80
2019-02-04T00:53:40.587Z,153.07
2019-02-04T00:56:21.526Z,138.13
2019-02-04T00:59:02.803Z,127.60
2019-02-04T01:01:44.290Z,121.83
2019-02-04T01:04:25.848Z,111.37
2019-02-04T01:07:06.676Z,118.83
2019-02-04T01:09:47.936Z,110.97
2019-02-04T01:12:29.537Z,104.07
2019-02-04T01:15:11.038Z,111.10
2019-02-04T01:17:52.442Z,108.30
2019-02-04T01:20:33.201Z,103.70
2019-02-04T01:23:14.693Z,111.23
2019-02-04T01:25:55.851Z,110.13
2019-02-04T01:28:37.360Z,112.17
2019-02-04T01:31:18.464Z,103.87
2019-02-04T01:33:58.804Z,111.20
2019-02-04T01:36:38.356Z,110.87
2019-02-04T01:42:26.866Z,107.33
2019-02-04T01:45:08.221Z,107.87
2019-02-04T01:47:49.806Z,101.27
2019-02-04T01:50:31.086Z,95.93
2019-02-04T01:53:12.186Z,92.90
2019-02-04T01:55:53.803Z,102.67
2019-02-04T01:58:34.969Z,92.07
2019-02-04T02:01:16.570Z,87.53
2019-02-04T02:03:57.869Z,87.53
2019-02-04T02:06:39.493Z,79.57
2019-02-04T02:09:22.836Z,55.63
2019-02-04T02:12:03.917Z,49.70
2019-02-04T02:14:45.355Z,32.07
2019-02-04T02:17:26.819Z,26.90
2019-02-04T02:20:06.421Z,19.17
2019-02-04T02:22:54.920Z,15.47
2019-02-04T02:25:35.812Z,14.97
2019-02-04T02:28:17.462Z,12.10
2019-02-04T02:30:58.989Z,15.37
2019-02-04T02:33:40.232Z,18.70
2019-02-04T02:36:21.658Z,16.67
2019-02-04T02:39:03.448Z,17.40
2019-02-04T02:41:44.012Z,16.23
2019-02-04T02:44:25.072Z,15.40
2019-02-04T02:47:06.584Z,17.20
2019-02-04T02:49:47.823Z,19.87
2019-02-04T02:52:28.898Z,19.97
2019-02-04T02:55:09.967Z,20.27
2019-02-04T02:57:50.985Z,22.60
2019-02-04T03:00:31.728Z,24.67
2019-02-04T03:03:13.060Z,25.60
2019-02-04T03:05:54.528Z,28.87
2019-02-04T03:08:35.928Z,23.70
2019-02-04T03:11:17.309Z,21.03
2019-02-04T03:13:58.198Z,18.87
2019-02-04T03:16:39.222Z,18.10
2019-02-04T03:19:19.929Z,16.57
2019-02-04T03:22:01.585Z,13.83
2019-02-04T03:24:42.478Z,14.70
2019-02-04T03:27:22.323Z,12.70
2019-02-04T03:30:03.041Z,13.03
2019-02-04T03:32:44.361Z,12.83
2019-02-04T03:35:25.415Z,11.90
2019-02-04T03:38:06.623Z,13.03
2019-02-04T03:40:47.797Z,14.73
2019-02-04T03:43:29.376Z,17.87
2019-02-04T03:46:10.877Z,16.50
2019-02-04T03:48:52.452Z,17.77
2019-02-04T03:51:33.951Z,19.73
2019-02-04T03:54:15.610Z,20.93
2019-02-04T03:56:56.367Z,21.80
2019-02-04T03:59:37.022Z,21.33
2019-02-04T04:02:18.395Z,23.00
2019-02-04T04:04:59.192Z,24.43
2019-02-04T04:07:40.425Z,21.90
2019-02-04T04:10:20.089Z,23.63
2019-02-04T04:13:01.371Z,23.97
2019-02-04T04:15:41.033Z,24.00
2019-02-04T04:18:21.873Z,24.30
2019-02-04T04:21:03.367Z,22.73
2019-02-04T04:23:44.622Z,25.60
2019-02-04T04:26:26.122Z,27.50
2019-02-04T04:29:06.762Z,20.17
2019-02-04T04:31:48.099Z,22.27
2019-02-04T04:34:28.692Z,20.40
2019-02-04T04:37:09.930Z,19.17
2019-02-04T04:39:51.059Z,18.57
2019-02-04T04:42:31.760Z,19.23
2019-02-04T04:45:12.376Z,17.83
2019-02-04T04:47:53.506Z,16.00
2019-02-04T04:50:34.469Z,17.67
2019-02-04T04:53:15.663Z,16.07
2019-02-04T04:55:57.223Z,14.67
2019-02-04T04:58:40.702Z,15.00
2019-02-04T05:01:21.559Z,13.90
2019-02-04T05:04:03.790Z,13.73
2019-02-04T05:06:44.368Z,12.67
2019-02-04T05:09:25.096Z,13.37
2019-02-04T05:12:06.009Z,12.17
2019-02-04T05:14:47.287Z,12.37
2019-02-04T05:17:28.409Z,11.17
2019-02-04T05:20:09.840Z,10.83
2019-02-04T05:22:51.303Z,11.00
2019-02-04T05:25:32.044Z,10.93
2019-02-04T05:28:13.430Z,10.03
2019-02-04T05:30:55.085Z,10.70
2019-02-04T05:33:36.499Z,8.73
2019-02-04T05:36:17.785Z,9.17
2019-02-04T05:38:59.120Z,8.03
2019-02-04T05:41:42.945Z,8.23
2019-02-04T05:44:23.051Z,9.63
2019-02-04T05:47:04.540Z,8.87
2019-02-04T05:49:45.734Z,8.23
2019-02-04T05:52:26.619Z,8.73
2019-02-04T05:55:07.453Z,7.30
2019-02-04T05:57:48.105Z,8.17
2019-02-04T06:03:25.935Z,6.60
2019-02-04T06:06:06.310Z,6.87
2019-02-04T06:08:47.678Z,5.97
2019-02-04T06:11:28.615Z,5.60
2019-02-04T06:14:10.130Z,6.63
2019-02-04T06:16:51.595Z,6.60
2019-02-04T06:19:32.278Z,6.53
2019-02-04T06:22:13.641Z,6.50
2019-02-04T06:24:55.141Z,8.17
2019-02-04T06:27:36.582Z,6.47
2019-02-04T06:30:17.561Z,6.17
2019-02-04T06:32:58.915Z,7.47
2019-02-04T06:35:40.373Z,5.37
2019-02-04T06:38:21.609Z,6.63
2019-02-04T06:41:02.991Z,7.50
2019-02-04T06:43:44.359Z,6.83
2019-02-04T06:46:23.968Z,5.17
2019-02-04T06:49:12.787Z,7.97
2019-02-04T06:51:55.710Z,6.57
2019-02-04T06:54:37.135Z,5.83
2019-02-04T06:57:18.616Z,6.30
2019-02-04T06:59:58.187Z,7.00
2019-02-04T07:02:39.127Z,5.63
2019-02-04T07:05:19.766Z,6.27
2019-02-04T07:08:02.004Z,5.80
2019-02-04T07:10:43.288Z,6.53
2019-02-04T07:13:24.528Z,6.97
2019-02-04T07:16:05.184Z,7.37
2019-02-04T07:18:46.228Z,7.90
2019-02-04T07:21:27.444Z,7.40
2019-02-04T07:24:08.490Z,8.23
2019-02-04T07:26:48.223Z,12.27
2019-02-04T07:29:29.681Z,13.23
2019-02-04T07:32:10.390Z,9.53
2019-02-04T07:34:51.131Z,14.83
2019-02-04T07:37:30.781Z,10.77
2019-02-04T07:40:11.450Z,8.23
2019-02-04T07:42:53.057Z,12.23
2019-02-04T07:45:33.835Z,10.30
2019-02-04T07:48:14.484Z,13.57
2019-02-04T07:50:56.178Z,6.73
2019-02-04T07:53:37.681Z,7.53
2019-02-04T07:56:18.818Z,6.70
2019-02-04T07:58:58.474Z,7.93
2019-02-04T08:01:39.116Z,7.47
2019-02-04T08:04:20.668Z,12.17
2019-02-04T08:07:02.195Z,5.13
2019-02-04T08:09:42.958Z,4.53
2019-02-04T08:12:22.432Z,5.67
2019-02-04T08:18:19.687Z,5.80
2019-02-04T08:23:45.842Z,3.90
2019-02-04T08:26:27.077Z,4.87
2019-02-04T08:29:07.738Z,5.30
2019-02-04T08:31:49.012Z,4.57
2019-02-04T08:34:30.505Z,4.73
2019-02-04T08:37:12.044Z,5.40
2019-02-04T08:39:52.079Z,5.63
2019-02-04T08:45:46.323Z,4.73
2019-02-04T08:48:27.547Z,4.77
2019-02-04T08:51:08.819Z,5.73
2019-02-04T08:53:48.503Z,5.50
2019-02-04T08:56:29.807Z,4.87
2019-02-04T08:59:09.342Z,5.20
2019-02-04T09:01:50.346Z,5.57
2019-02-04T09:04:31.740Z,6.27
2019-02-04T09:07:11.322Z,7.03
2019-02-04T09:12:59.887Z,5.07
2019-02-04T09:15:41.139Z,5.07
2019-02-04T09:18:22.069Z,6.13
2019-02-04T09:21:02.985Z,4.80
2019-02-04T09:23:44.443Z,8.77
2019-02-04T09:26:25.446Z,3.90
2019-02-04T09:29:06.847Z,6.40
2019-02-04T09:31:47.474Z,7.73
2019-02-04T09:34:29.917Z,6.97
2019-02-04T09:37:11.532Z,6.90
2019-02-04T09:39:53.068Z,4.60
2019-02-04T09:42:34.105Z,6.57
2019-02-04T09:45:15.525Z,7.27
2019-02-04T09:47:56.192Z,6.97
2019-02-04T09:50:37.636Z,6.60
2019-02-04T09:53:18.997Z,6.53
2019-02-04T09:56:00.378Z,8.53
2019-02-04T09:58:41.704Z,5.90
2019-02-04T10:01:23.174Z,5.60
2019-02-04T10:04:04.728Z,7.67
2019-02-04T10:06:45.855Z,6.07
2019-02-04T10:09:27.139Z,7.43
2019-02-04T10:12:08.607Z,5.50
2019-02-04T10:14:50.086Z,7.60
2019-02-04T10:17:31.431Z,9.33
2019-02-04T10:20:12.153Z,4.63
2019-02-04T10:22:53.441Z,7.97
2019-02-04T10:25:34.871Z,7.23
2019-02-04T17:48:22.569Z,13.73
2019-02-04T17:51:04.113Z,14.83
2019-02-04T17:53:45.234Z,10.70
2019-02-04T17:56:26.690Z,10.13
2019-02-04T17:59:08.098Z,12.57
2019-02-04T18:01:49.707Z,20.17
2019-02-04T18:04:31.192Z,12.07
2019-02-04T18:07:12.327Z,24.20
2019-02-04T18:09:54.020Z,14.87
2019-02-04T18:12:35.300Z,22.90
2019-02-04T18:15:16.365Z,15.67
2019-02-04T18:17:57.834Z,24.07
2019-02-04T18:20:39.256Z,21.37
2019-02-04T18:23:20.954Z,19.03
2019-02-04T18:26:02.176Z,14.60
2019-02-04T18:28:43.528Z,9.37
2019-02-04T18:31:25.157Z,9.00
2019-02-04T18:34:06.899Z,15.97
2019-02-04T18:36:48.220Z,15.60
2019-02-04T18:39:29.559Z,15.70
2019-02-04T18:42:10.896Z,21.20
2019-02-04T18:44:52.505Z,17.93
2019-02-04T18:47:34.024Z,28.33
2019-02-04T18:50:15.368Z,21.83
2019-02-04T18:52:56.705Z,15.57
2019-02-04T18:55:38.225Z,27.90
2019-02-04T18:58:19.086Z,23.27
2019-02-04T19:01:00.556Z,14.57
2019-02-04T19:03:41.969Z,26.77
2019-02-04T19:06:23.410Z,19.27
2019-02-04T19:09:05.325Z,19.07
2019-02-04T19:11:46.232Z,16.73
2019-02-04T19:14:27.505Z,20.63
2019-02-04T19:17:08.907Z,17.57
2019-02-04T19:19:50.388Z,16.73
2019-02-04T19:22:32.043Z,16.13
2019-02-04T19:25:13.532Z,20.07
2019-02-04T19:27:54.705Z,21.87
2019-02-04T19:30:35.829Z,16.97
2019-02-04T19:33:15.978Z,16.57
2019-02-04T19:35:56.112Z,19.17
2019-02-04T19:38:34.594Z,18.53
2019-02-04T20:49:43.745Z,14.77
2019-02-04T20:52:24.738Z,15.87
2019-02-04T20:55:05.093Z,17.50
2019-02-04T21:00:53.780Z,15.77
2019-02-04T21:03:34.494Z,17.40
2019-02-04T21:06:16.145Z,16.63
2019-02-04T21:08:57.637Z,17.67
2019-02-04T21:11:38.887Z,18.27
2019-02-04T21:14:20.482Z,16.33
2019-02-04T21:17:02.059Z,16.07
2019-02-04T21:19:44.190Z,17.13
2019-02-04T21:22:25.653Z,15.77
2019-02-04T21:25:06.768Z,14.67
2019-02-04T21:27:48.103Z,16.17
2019-02-04T21:30:29.623Z,15.43
2019-02-04T21:33:10.981Z,16.17
2019-02-04T21:35:51.704Z,15.93
2019-02-04T21:38:32.718Z,16.40
2019-02-04T21:41:13.924Z,17.70
2019-02-04T21:43:53.567Z,17.03
2019-02-04T21:46:42.192Z,18.03
2019-02-04T21:49:22.838Z,18.37
2019-02-04T21:52:04.358Z,21.73
2019-02-04T21:54:45.637Z,16.10
2019-02-04T21:57:27.090Z,18.27
2019-02-04T22:00:08.614Z,19.60
2019-02-04T22:02:50.084Z,16.30
2019-02-04T22:05:31.560Z,15.43
2019-02-04T22:08:13.284Z,17.83
2019-02-04T22:10:54.548Z,17.40
2019-02-04T22:13:36.132Z,16.43
2019-02-04T22:16:16.857Z,16.40
2019-02-04T22:18:56.991Z,17.23
2019-02-04T22:21:38.095Z,15.93
2019-02-04T22:24:19.727Z,16.83
2019-02-04T22:27:01.184Z,16.10
2019-02-04T22:29:41.974Z,17.27
2019-02-04T22:32:23.225Z,18.80
2019-02-04T22:35:04.747Z,21.53
2019-02-04T22:49:39.628Z,20.30
2019-02-04T22:52:19.751Z,22.40
2019-02-04T22:54:58.683Z,20.53
2019-02-04T22:57:37.330Z,19.20
